createdAt,value
2019-05-21T00:00:57.342Z,97484.92
2019-05-21T00:03:08.190Z,97487.77
2019-05-21T00:05:19.010Z,97487.77
2019-05-21T00:07:29.868Z,97484.69
2019-05-21T00:09:40.732Z,97482.42
2019-05-21T00:11:51.566Z,97476.87
2019-05-21T00:14:02.504Z,97480.91
2019-05-21T00:16:13.319Z,97483.72
2019-05-21T00:18:26.133Z,97485.27
2019-05-21T00:20:36.953Z,97478.88
2019-05-21T00:22:48.107Z,97485.41
2019-05-21T00:24:59.032Z,97481.60
2019-05-21T00:27:09.858Z,97480.20
2019-05-21T00:29:58.046Z,97479.13
2019-05-21T00:32:46.150Z,97488.26
2019-05-21T00:35:49.013Z,97488.94
2019-05-21T00:38:37.377Z,97483.72
2019-05-21T00:41:25.864Z,97484.44
2019-05-21T00:43:49.619Z,97482.08
2019-05-21T00:46:00.529Z,97483.72
2019-05-21T00:48:11.346Z,97480.09
2019-05-21T00:50:22.208Z,97481.12
2019-05-21T00:52:33.041Z,97481.12
2019-05-21T00:54:43.986Z,97474.15
2019-05-21T00:56:54.818Z,97476.28
2019-05-21T00:59:05.661Z,97477.10
2019-05-21T01:01:16.487Z,97478.64
2019-05-21T01:03:27.326Z,97478.16
2019-05-21T01:05:38.151Z,97475.45
2019-05-21T01:07:48.981Z,97472.86
2019-05-21T01:09:59.812Z,97479.72
2019-05-21T01:12:10.688Z,97482.23
2019-05-21T01:14:21.525Z,97475.85
2019-05-21T01:16:34.549Z,97480.92
2019-05-21T01:18:45.512Z,97483.19
2019-05-21T01:20:56.348Z,97475.38
2019-05-21T01:23:07.160Z,97483.58
2019-05-21T01:25:18.042Z,97481.42
2019-05-21T01:27:28.839Z,97485.47
2019-05-21T01:29:39.674Z,97487.00
2019-05-21T01:31:50.515Z,97484.52
2019-05-21T01:34:01.364Z,97496.38
2019-05-21T01:36:12.248Z,97490.09
2019-05-21T01:38:23.076Z,97493.52
2019-05-21T01:40:33.920Z,97492.09
2019-05-21T01:42:44.779Z,97495.77
2019-05-21T01:44:55.583Z,97495.08
2019-05-21T01:47:06.442Z,97491.41
2019-05-21T01:49:17.256Z,97485.97
2019-05-21T01:51:28.090Z,97495.91
2019-05-21T01:53:38.906Z,97500.05
2019-05-21T01:55:49.781Z,97495.91
2019-05-21T01:58:00.595Z,97487.89
2019-05-21T02:00:11.626Z,97495.70
2019-05-21T02:02:22.513Z,97493.55
2019-05-21T02:04:33.391Z,97500.33
2019-05-21T02:06:45.097Z,97493.34
2019-05-21T02:08:57.824Z,97492.52
2019-05-21T02:11:08.658Z,97496.05
2019-05-21T02:13:19.473Z,97493.09
2019-05-21T02:15:30.399Z,97489.91
2019-05-21T02:17:41.243Z,97497.35
2019-05-21T02:19:52.249Z,97496.42
2019-05-21T02:22:03.192Z,97498.69
2019-05-21T02:24:14.016Z,97500.67
2019-05-21T02:26:24.865Z,97506.27
2019-05-21T02:28:37.608Z,97513.73
2019-05-21T02:30:48.406Z,97502.36
2019-05-21T02:32:59.261Z,97506.84
2019-05-21T02:35:10.195Z,97505.55
2019-05-21T02:37:21.022Z,97506.40
2019-05-21T02:39:31.842Z,97503.89
2019-05-21T02:41:42.654Z,97506.84
2019-05-21T02:43:53.503Z,97499.98
2019-05-21T02:46:04.430Z,97514.93
2019-05-21T02:48:15.270Z,97509.58
2019-05-21T02:50:26.098Z,97515.27
2019-05-21T02:52:36.926Z,97513.15
2019-05-21T02:54:47.874Z,97513.25
2019-05-21T02:56:58.874Z,97510.89
2019-05-21T02:59:09.973Z,97512.33
2019-05-21T03:01:25.716Z,97513.73
2019-05-21T03:03:36.942Z,97518.70
2019-05-21T03:05:47.759Z,97521.78
2019-05-21T03:07:58.594Z,97521.67
2019-05-21T03:10:09.519Z,97517.42
2019-05-21T03:12:20.511Z,97523.22
2019-05-21T03:14:31.419Z,97520.48
2019-05-21T03:16:42.272Z,97528.20
2019-05-21T03:18:53.133Z,97524.63
2019-05-21T03:21:03.965Z,97530.69
2019-05-21T03:23:14.894Z,97526.25
2019-05-21T03:25:25.721Z,97522.13
2019-05-21T03:27:36.529Z,97527.34
2019-05-21T03:29:47.378Z,97525.35
2019-05-21T03:31:58.431Z,97529.60
2019-05-21T03:34:09.398Z,97530.19
2019-05-21T03:36:32.507Z,97525.69
2019-05-21T03:38:32.958Z,97525.83
2019-05-21T03:40:44.026Z,97530.21
2019-05-21T03:42:54.845Z,97524.76
2019-05-21T03:45:08.103Z,97528.91
2019-05-21T03:47:19.392Z,97525.72
2019-05-21T03:49:30.633Z,97527.02
2019-05-21T03:51:41.464Z,97528.53
2019-05-21T03:53:52.335Z,97536.12
2019-05-21T03:56:03.163Z,97541.10
2019-05-21T03:58:14.080Z,97537.44
2019-05-21T04:00:24.928Z,97539.32
2019-05-21T04:02:35.991Z,97534.34
2019-05-21T04:04:46.820Z,97541.47
2019-05-21T04:06:57.749Z,97553.77
2019-05-21T04:09:08.589Z,97543.70
2019-05-21T04:11:19.427Z,97545.73
2019-05-21T04:13:30.272Z,97548.20
2019-05-21T04:15:49.225Z,97551.75
2019-05-21T04:18:04.736Z,97552.82
2019-05-21T04:20:15.579Z,97546.80
2019-05-21T04:22:26.508Z,97548.34
2019-05-21T04:24:37.310Z,97542.07
2019-05-21T04:26:48.192Z,97549.50
2019-05-21T04:28:59.052Z,97547.63
2019-05-21T04:31:09.918Z,97549.75
2019-05-21T04:33:20.759Z,97553.66
2019-05-21T04:35:31.618Z,97560.52
2019-05-21T04:37:42.433Z,97553.66
2019-05-21T04:39:53.350Z,97554.83
2019-05-21T04:42:04.283Z,97557.80
2019-05-21T04:44:15.110Z,97560.64
2019-05-21T04:46:25.961Z,97554.48
2019-05-21T04:48:38.684Z,97565.23
2019-05-21T04:50:51.508Z,97559.82
2019-05-21T04:53:02.540Z,97563.59
2019-05-21T04:55:13.373Z,97559.69
2019-05-21T04:57:24.221Z,97564.66
2019-05-21T04:59:35.030Z,97566.22
2019-05-21T05:01:45.880Z,97570.47
2019-05-21T05:03:56.708Z,97569.63
2019-05-21T05:06:07.652Z,97570.45
2019-05-21T05:08:18.589Z,97578.16
2019-05-21T05:10:29.580Z,97575.67
2019-05-21T05:12:42.341Z,97574.73
2019-05-21T05:14:53.214Z,97582.55
2019-05-21T05:17:04.035Z,97573.66
2019-05-21T05:19:14.859Z,97572.94
2019-05-21T05:21:25.672Z,97574.62
2019-05-21T05:23:36.516Z,97577.09
2019-05-21T05:25:47.358Z,97582.78
2019-05-21T05:27:58.294Z,97574.48
2019-05-21T05:30:09.603Z,97576.37
2019-05-21T05:32:20.444Z,97574.03
2019-05-21T05:34:31.332Z,97576.02
2019-05-21T05:36:42.375Z,97576.25
2019-05-21T05:38:53.258Z,97569.74
2019-05-21T05:41:04.187Z,97565.62
2019-05-21T05:43:15.014Z,97565.27
2019-05-21T05:45:25.816Z,97569.75
2019-05-21T05:47:36.666Z,97560.77
2019-05-21T05:49:52.162Z,97560.27
2019-05-21T05:52:03.130Z,97563.33
2019-05-21T05:54:13.992Z,97559.33
2019-05-21T05:56:28.016Z,97561.92
2019-05-21T05:58:38.866Z,97562.87
2019-05-21T06:00:49.870Z,97567.73
2019-05-21T06:03:00.771Z,97566.53
2019-05-21T06:05:12.001Z,97564.31
2019-05-21T06:07:22.875Z,97563.58
2019-05-21T06:09:33.724Z,97565.25
2019-05-21T06:11:44.648Z,97562.52
2019-05-21T06:13:55.640Z,97554.95
2019-05-21T06:16:06.573Z,97566.19
2019-05-21T06:18:17.449Z,97565.59
2019-05-21T06:20:28.368Z,97565.48
2019-05-21T06:22:39.280Z,97565.59
2019-05-21T06:24:50.134Z,97558.72
2019-05-21T06:27:01.070Z,97564.88
2019-05-21T06:29:12.016Z,97558.38
2019-05-21T06:31:22.851Z,97552.21
2019-05-21T06:33:33.674Z,97552.59
2019-05-21T06:35:44.821Z,97548.31
2019-05-21T06:37:55.638Z,97560.86
2019-05-21T06:40:08.702Z,97565.00
2019-05-21T06:42:19.571Z,97566.77
2019-05-21T06:44:30.514Z,97573.41
2019-05-21T06:46:41.325Z,97571.84
2019-05-21T06:48:52.165Z,97562.74
2019-05-21T06:51:03.213Z,97565.34
2019-05-21T06:53:14.034Z,97565.02
2019-05-21T06:55:25.014Z,97564.66
2019-05-21T06:57:35.822Z,97557.19
2019-05-21T06:59:46.793Z,97564.66
2019-05-21T07:01:57.704Z,97556.02
2019-05-21T07:04:08.559Z,97560.63
2019-05-21T07:06:19.390Z,97558.86
2019-05-21T07:08:34.600Z,97558.03
2019-05-21T07:10:43.117Z,97567.60
2019-05-21T07:12:53.952Z,97566.42
2019-05-21T07:15:05.253Z,97572.00
2019-05-21T07:17:16.862Z,97569.98
2019-05-21T07:19:27.715Z,97570.31
2019-05-21T07:21:38.551Z,97572.59
2019-05-21T07:23:49.484Z,97581.82
2019-05-21T07:26:00.322Z,97577.05
2019-05-21T07:28:11.350Z,97580.38
2019-05-21T07:30:22.269Z,97582.15
2019-05-21T07:32:33.103Z,97582.75
2019-05-21T07:34:43.969Z,97572.46
2019-05-21T07:36:54.885Z,97576.73
2019-05-21T07:39:05.857Z,97576.83
2019-05-21T07:41:20.068Z,97574.02
2019-05-21T07:43:29.689Z,97579.34
2019-05-21T07:45:40.612Z,97580.29
2019-05-21T07:47:51.446Z,97569.50
2019-05-21T07:50:04.071Z,97569.03
2019-05-21T07:52:14.909Z,97567.96
2019-05-21T07:54:28.022Z,97574.72
2019-05-21T07:56:40.389Z,97576.02
2019-05-21T07:58:51.383Z,97577.21
2019-05-21T08:01:02.425Z,97577.91
2019-05-21T08:03:13.257Z,97578.86
2019-05-21T08:05:24.172Z,97593.75
2019-05-21T08:07:35.109Z,97590.11
2019-05-21T08:09:45.931Z,97600.03
2019-05-21T08:11:56.759Z,97605.61
2019-05-21T08:14:07.600Z,97600.05
2019-05-21T08:16:18.548Z,97602.16
2019-05-21T08:18:29.582Z,97605.96
2019-05-21T08:20:40.490Z,97607.52
2019-05-21T08:22:51.350Z,97616.03
2019-05-21T08:25:05.251Z,97617.70
2019-05-21T08:27:16.165Z,97618.16
2019-05-21T08:29:27.022Z,97614.84
2019-05-21T08:31:37.815Z,97615.80
2019-05-21T08:33:48.671Z,97619.59
2019-05-21T08:35:59.500Z,97620.08
2019-05-21T08:38:10.454Z,97623.13
2019-05-21T08:40:21.272Z,97623.62
2019-05-21T08:42:32.234Z,97624.20
2019-05-21T08:44:43.422Z,97627.16
2019-05-21T08:46:54.403Z,97627.64
2019-05-21T08:49:05.238Z,97627.29
2019-05-21T08:51:16.062Z,97627.87
2019-05-21T08:53:26.923Z,97634.97
2019-05-21T08:55:37.830Z,97629.52
2019-05-21T08:58:05.816Z,97632.72
2019-05-21T09:00:03.906Z,97641.73
2019-05-21T09:02:15.245Z,97639.02
2019-05-21T09:04:45.011Z,97648.34
2019-05-21T09:06:38.809Z,97644.22
2019-05-21T09:08:49.654Z,97645.87
2019-05-21T09:11:00.574Z,97642.92
2019-05-21T09:13:11.634Z,97646.22
2019-05-21T09:15:22.670Z,97648.48
2019-05-21T09:17:33.591Z,97649.06
2019-05-21T09:19:44.432Z,97656.52
2019-05-21T09:21:55.369Z,97651.08
2019-05-21T09:24:06.363Z,97653.69
2019-05-21T09:26:19.155Z,97655.45
2019-05-21T09:28:29.987Z,97652.27
2019-05-21T09:30:40.842Z,97665.75
2019-05-21T09:32:51.693Z,97655.58
2019-05-21T09:35:04.691Z,97659.01
2019-05-21T09:37:19.730Z,97670.38
2019-05-21T09:39:28.315Z,97665.42
2019-05-21T09:41:39.150Z,97665.87
2019-05-21T09:43:50.012Z,97669.67
2019-05-21T09:46:00.848Z,97671.33
2019-05-21T09:48:11.670Z,97674.87
2019-05-21T09:50:22.637Z,97681.86
2019-05-21T09:52:33.478Z,97678.66
2019-05-21T09:54:44.524Z,97680.21
2019-05-21T09:56:55.432Z,97683.66
2019-05-21T09:59:18.903Z,97681.64
2019-05-21T10:01:34.136Z,97687.20
2019-05-21T10:03:49.656Z,97692.18
2019-05-21T10:06:00.653Z,97697.39
2019-05-21T10:08:11.465Z,97696.56
2019-05-21T10:10:22.378Z,97702.82
2019-05-21T10:12:33.279Z,97703.91
2019-05-21T10:14:44.106Z,97709.81
2019-05-21T10:16:55.461Z,97711.23
2019-05-21T10:19:06.319Z,97713.26
2019-05-21T10:21:17.182Z,97718.47
2019-05-21T10:23:28.058Z,97719.20
2019-05-21T10:25:38.915Z,97724.52
2019-05-21T10:27:49.791Z,97724.87
2019-05-21T10:30:00.691Z,97729.97
2019-05-21T10:32:11.562Z,97731.96
2019-05-21T10:34:22.504Z,97736.25
2019-05-21T10:36:33.373Z,97744.16
2019-05-21T10:38:44.358Z,97749.85
2019-05-21T10:40:55.164Z,97749.50
2019-05-21T10:43:06.018Z,97748.90
2019-05-21T10:45:16.878Z,97750.08
2019-05-21T10:47:27.817Z,97755.30
2019-05-21T10:49:38.645Z,97751.27
2019-05-21T10:51:49.546Z,97754.38
2019-05-21T10:54:00.982Z,97759.58
2019-05-21T10:56:11.884Z,97750.46
2019-05-21T10:58:22.737Z,97755.80
2019-05-21T11:00:33.567Z,97764.91
2019-05-21T11:02:55.579Z,97762.66
2019-05-21T11:05:11.125Z,97761.00
2019-05-21T11:07:22.422Z,97764.19
2019-05-21T11:09:33.352Z,97771.30
2019-05-21T11:11:45.259Z,97778.39
2019-05-21T11:13:56.940Z,97772.84
2019-05-21T11:16:07.885Z,97783.03
2019-05-21T11:18:18.724Z,97774.61
2019-05-21T11:20:29.681Z,97781.34
2019-05-21T11:22:42.645Z,97785.16
2019-05-21T11:24:53.474Z,97785.98
2019-05-21T11:27:04.964Z,97783.84
2019-05-21T11:29:15.934Z,97788.84
2019-05-21T11:31:26.750Z,97795.25
2019-05-21T11:33:37.607Z,97790.02
2019-05-21T11:35:48.523Z,97793.22
2019-05-21T11:37:59.496Z,97798.56
2019-05-21T11:40:10.837Z,97795.95
2019-05-21T11:42:21.650Z,97803.17
2019-05-21T11:44:32.514Z,97806.25
2019-05-21T11:46:43.451Z,97805.06
2019-05-21T11:48:54.313Z,97817.30
2019-05-21T11:51:07.034Z,97809.70
2019-05-21T11:53:17.882Z,97808.80
2019-05-21T11:55:28.712Z,97815.44
2019-05-21T11:57:39.544Z,97816.62
2019-05-21T11:59:50.411Z,97820.41
2019-05-21T12:02:01.239Z,97825.39
2019-05-21T12:04:12.104Z,97828.11
2019-05-21T12:06:23.031Z,97827.75
2019-05-21T12:08:33.893Z,97834.41
2019-05-21T12:10:45.215Z,97839.97
2019-05-21T12:12:56.039Z,97838.79
2019-05-21T12:15:07.177Z,97845.31
2019-05-21T12:17:18.019Z,97844.00
2019-05-21T12:19:28.879Z,97841.52
2019-05-21T12:21:41.654Z,97841.62
2019-05-21T12:23:52.528Z,97840.56
2019-05-21T12:26:03.463Z,97844.93
2019-05-21T12:28:14.301Z,97851.47
2019-05-21T12:30:25.145Z,97856.55
2019-05-21T12:32:36.006Z,97863.67
2019-05-21T12:34:46.862Z,97863.67
2019-05-21T12:36:57.739Z,97869.61
2019-05-21T12:39:14.084Z,97873.16
2019-05-21T12:41:21.391Z,97872.24
2019-05-21T12:43:32.332Z,97874.25
2019-05-21T12:45:43.160Z,97877.45
2019-05-21T12:47:54.012Z,97868.17
2019-05-21T12:50:05.365Z,97884.78
2019-05-21T12:52:16.232Z,97892.38
2019-05-21T12:54:29.137Z,97890.02
2019-05-21T12:56:41.967Z,97887.98
2019-05-21T12:58:52.799Z,97891.32
2019-05-21T13:01:03.742Z,97895.83
2019-05-21T13:03:14.573Z,97903.75
2019-05-21T13:05:25.538Z,97903.88
2019-05-21T13:07:36.476Z,97908.75
2019-05-21T13:09:47.325Z,97912.78
2019-05-21T13:11:58.808Z,97916.80
2019-05-21T13:14:09.634Z,97920.83
2019-05-21T13:16:20.583Z,97927.70
2019-05-21T13:18:31.413Z,97926.52
2019-05-21T13:20:42.252Z,97937.78
2019-05-21T13:22:53.096Z,97939.66
2019-05-21T13:25:06.168Z,97937.88
2019-05-21T13:27:17.120Z,97939.34
2019-05-21T13:29:27.961Z,97948.81
2019-05-21T13:31:38.920Z,97946.08
2019-05-21T13:33:49.836Z,97952.38
2019-05-21T13:36:00.712Z,97950.84
2019-05-21T13:38:13.573Z,97956.06
2019-05-21T13:40:24.850Z,97964.59
2019-05-21T13:42:35.891Z,97959.14
2019-05-21T13:44:46.710Z,97960.23
2019-05-21T13:46:57.567Z,97964.23
2019-05-21T13:49:08.408Z,97963.86
2019-05-21T13:51:19.234Z,97970.98
2019-05-21T13:53:30.120Z,97962.56
2019-05-21T13:55:40.929Z,97971.34
2019-05-21T13:57:51.798Z,97975.25
2019-05-21T14:00:07.121Z,97975.95
2019-05-21T14:02:18.067Z,97983.89
2019-05-21T14:04:29.211Z,97984.38
2019-05-21T14:06:40.125Z,97984.28
2019-05-21T14:08:52.887Z,97985.91
2019-05-21T14:11:03.932Z,97984.98
2019-05-21T14:13:14.889Z,97988.28
2019-05-21T14:15:25.827Z,97990.80
2019-05-21T14:17:36.642Z,97990.80
2019-05-21T14:19:47.546Z,98007.02
2019-05-21T14:21:58.350Z,98000.12
2019-05-21T14:24:09.292Z,98003.20
2019-05-21T14:26:20.157Z,97999.64
2019-05-21T14:28:34.319Z,98004.89
2019-05-21T14:30:43.725Z,97994.94
2019-05-21T14:32:54.578Z,98003.36
2019-05-21T14:35:05.765Z,98008.80
2019-05-21T14:37:16.680Z,98013.89
2019-05-21T14:39:27.640Z,98019.58
2019-05-21T14:41:38.711Z,98020.77
2019-05-21T14:43:49.519Z,98027.02
2019-05-21T14:46:00.413Z,98027.53
2019-05-21T14:48:11.205Z,98027.16
2019-05-21T14:50:22.077Z,98029.06
2019-05-21T14:52:32.918Z,98029.89
2019-05-21T14:54:43.770Z,98031.80
2019-05-21T14:56:54.643Z,98035.67
2019-05-21T14:59:05.562Z,98034.84
2019-05-21T15:01:16.413Z,98038.41
2019-05-21T15:03:29.524Z,98041.49
2019-05-21T15:05:40.170Z,98045.98
2019-05-21T15:07:51.132Z,98050.02
2019-05-21T15:10:03.134Z,98057.70
2019-05-21T15:12:14.090Z,98058.05
2019-05-21T15:14:25.054Z,98056.62
2019-05-21T15:16:36.155Z,98057.10
2019-05-21T15:18:47.180Z,98062.19
2019-05-21T15:21:00.049Z,98060.02
2019-05-21T15:23:11.002Z,98057.66
2019-05-21T15:25:21.968Z,98066.79
2019-05-21T15:27:32.804Z,98063.48
2019-05-21T15:29:43.640Z,98067.27
2019-05-21T15:31:54.478Z,98067.13
2019-05-21T15:34:05.579Z,98070.22
2019-05-21T15:36:16.443Z,98070.09
2019-05-21T15:38:27.278Z,98071.83
2019-05-21T15:40:38.198Z,98072.78
2019-05-21T15:42:52.727Z,98078.17
2019-05-21T15:45:02.802Z,98075.51
2019-05-21T15:47:15.584Z,98078.30
2019-05-21T15:49:35.647Z,98080.37
2019-05-21T15:51:39.232Z,98081.81
2019-05-21T15:53:50.158Z,98089.75
2019-05-21T15:56:01.152Z,98085.58
2019-05-21T15:58:12.011Z,98094.56
2019-05-21T16:00:23.073Z,98088.75
2019-05-21T16:02:34.047Z,98092.66
2019-05-21T16:04:44.908Z,98098.48
2019-05-21T16:06:55.868Z,98097.19
2019-05-21T16:09:07.649Z,98103.22
2019-05-21T16:11:27.985Z,98100.05
2019-05-21T16:13:31.515Z,98107.61
2019-05-21T16:15:42.439Z,98105.83
2019-05-21T16:17:53.359Z,98107.52
2019-05-21T16:20:07.728Z,98108.77
2019-05-21T16:22:18.563Z,98104.98
2019-05-21T16:24:29.817Z,98098.08
2019-05-21T16:26:40.727Z,98096.22
2019-05-21T16:28:51.590Z,98102.38
2019-05-21T16:31:02.531Z,98108.30
2019-05-21T16:33:13.396Z,98101.08
2019-05-21T16:35:24.364Z,98113.03
2019-05-21T16:37:35.314Z,98116.71
2019-05-21T16:39:46.273Z,98116.11
2019-05-21T16:41:57.226Z,98118.72
2019-05-21T16:44:08.190Z,98119.81
2019-05-21T16:46:19.123Z,98120.92
2019-05-21T16:48:29.980Z,98125.02
2019-05-21T16:50:41.190Z,98125.45
2019-05-21T16:52:52.013Z,98128.65
2019-05-21T16:55:04.668Z,98131.67
2019-05-21T16:57:15.518Z,98132.41
2019-05-21T16:59:28.404Z,98127.62
2019-05-21T17:01:39.420Z,98136.73
2019-05-21T17:03:59.650Z,98131.86
2019-05-21T17:06:03.414Z,98135.64
2019-05-21T17:08:14.246Z,98138.25
2019-05-21T17:10:27.022Z,98141.95
2019-05-21T17:12:37.969Z,98142.16
2019-05-21T17:14:50.000Z,98148.46
2019-05-21T17:17:01.043Z,98145.65
2019-05-21T17:19:11.938Z,98150.71
2019-05-21T17:21:22.806Z,98154.83
2019-05-21T17:23:33.655Z,98151.75
2019-05-21T17:25:44.719Z,98155.92
2019-05-21T17:27:55.548Z,98154.68
2019-05-21T17:30:07.993Z,98150.77
2019-05-21T17:32:19.885Z,98151.06
2019-05-21T17:34:30.835Z,98157.84
2019-05-21T17:36:41.748Z,98158.94
2019-05-21T17:38:52.584Z,98163.59
2019-05-21T17:41:03.676Z,98165.81
2019-05-21T17:43:16.794Z,98165.78
2019-05-21T17:45:27.768Z,98169.92
2019-05-21T17:47:38.821Z,98170.78
2019-05-21T17:49:49.753Z,98170.88
2019-05-21T17:52:00.666Z,98172.77
2019-05-21T17:54:11.529Z,98171.14
2019-05-21T17:56:24.389Z,98176.44
2019-05-21T17:58:35.354Z,98179.98
2019-05-21T18:00:50.886Z,98186.47
2019-05-21T18:03:01.899Z,98184.58
2019-05-21T18:05:12.840Z,98190.05
2019-05-21T18:07:23.869Z,98195.83
2019-05-21T18:09:35.085Z,98195.27
2019-05-21T18:11:45.998Z,98198.39
2019-05-21T18:13:56.918Z,98200.53
2019-05-21T18:16:08.219Z,98210.95
2019-05-21T18:18:19.244Z,98206.88
2019-05-21T18:20:30.380Z,98209.29
2019-05-21T18:22:43.054Z,98215.13
2019-05-21T18:24:53.901Z,98213.59
2019-05-21T18:27:04.867Z,98217.61
2019-05-21T18:29:16.104Z,98220.06
2019-05-21T18:31:27.180Z,98225.63
2019-05-21T18:33:38.284Z,98228.70
2019-05-21T18:35:49.283Z,98225.06
2019-05-21T18:38:00.373Z,98233.09
2019-05-21T18:40:11.261Z,98233.76
2019-05-21T18:42:22.815Z,98244.17
2019-05-21T18:44:33.801Z,98237.31
2019-05-21T18:46:44.813Z,98244.73
2019-05-21T18:48:55.801Z,98247.09
2019-05-21T18:51:06.698Z,98250.96
2019-05-21T18:53:17.956Z,98255.42
2019-05-21T18:55:28.885Z,98255.22
2019-05-21T18:57:40.137Z,98262.30
2019-05-21T18:59:51.046Z,98259.80
2019-05-21T19:02:02.288Z,98262.30
2019-05-21T19:04:13.186Z,98267.70
2019-05-21T19:06:24.010Z,98270.89
2019-05-21T19:08:35.114Z,98266.40
2019-05-21T19:10:45.968Z,98266.40
2019-05-21T19:13:00.451Z,98274.33
2019-05-21T19:15:09.901Z,98275.98
2019-05-21T19:17:34.854Z,98276.77
2019-05-21T19:19:33.728Z,98282.54
2019-05-21T19:21:44.713Z,98288.49
2019-05-21T19:23:55.682Z,98286.80
2019-05-21T19:26:06.616Z,98294.22
2019-05-21T19:28:17.595Z,98292.28
2019-05-21T19:30:28.931Z,98299.00
2019-05-21T19:32:39.981Z,98305.70
2019-05-21T19:34:52.941Z,98307.39
2019-05-21T19:37:03.786Z,98309.05
2019-05-21T19:39:14.767Z,98309.64
2019-05-21T19:41:26.032Z,98314.84
2019-05-21T19:43:36.883Z,98314.38
2019-05-21T19:45:47.857Z,98315.76
2019-05-21T19:48:00.801Z,98325.06
2019-05-21T19:50:12.238Z,98316.59
2019-05-21T19:52:23.263Z,98321.08
2019-05-21T19:54:34.411Z,98325.81
2019-05-21T19:56:45.251Z,98326.02
2019-05-21T19:58:56.124Z,98331.58
2019-05-21T20:01:07.821Z,98329.45
2019-05-21T20:03:18.689Z,98339.20
2019-05-21T20:05:29.928Z,98337.70
2019-05-21T20:07:41.069Z,98336.01
2019-05-21T20:09:53.315Z,98342.19
2019-05-21T20:12:06.077Z,98346.92
2019-05-21T20:14:17.461Z,98350.53
2019-05-21T20:16:28.466Z,98353.33
2019-05-21T20:18:39.374Z,98353.77
2019-05-21T20:20:51.488Z,98356.26
2019-05-21T20:23:08.148Z,98355.57
2019-05-21T20:25:17.826Z,98356.70
2019-05-21T20:27:29.683Z,98357.81
2019-05-21T20:29:41.146Z,98360.42
2019-05-21T20:31:52.151Z,98358.73
2019-05-21T20:34:03.943Z,98356.13
2019-05-21T20:36:14.800Z,98360.50
2019-05-21T20:38:27.238Z,98363.02
2019-05-21T20:40:39.516Z,98359.97
2019-05-21T20:42:50.793Z,98361.72
2019-05-21T20:45:02.346Z,98366.56
2019-05-21T20:47:15.352Z,98366.56
2019-05-21T20:49:26.770Z,98365.62
2019-05-21T20:51:38.247Z,98367.38
2019-05-21T20:53:49.078Z,98367.59
2019-05-21T20:56:00.425Z,98367.59
2019-05-21T20:58:11.273Z,98367.20
2019-05-21T21:00:41.923Z,98372.52
2019-05-21T21:02:53.919Z,98369.73
2019-05-21T21:05:05.760Z,98363.94
2019-05-21T21:07:17.232Z,98366.93
2019-05-21T21:09:28.104Z,98368.59
2019-05-21T21:11:39.309Z,98368.50
2019-05-21T21:13:51.109Z,98370.20
2019-05-21T21:16:02.551Z,98366.84
2019-05-21T21:18:14.488Z,98367.78
2019-05-21T21:20:25.324Z,98371.75
2019-05-21T21:22:36.319Z,98377.06
2019-05-21T21:24:47.545Z,98370.66
2019-05-21T21:26:58.427Z,98381.27
2019-05-21T21:29:09.256Z,98383.48
2019-05-21T21:31:20.333Z,98381.47
2019-05-21T21:33:31.216Z,98386.03
2019-05-21T21:35:42.753Z,98391.02
2019-05-21T21:37:53.898Z,98394.02
2019-05-21T21:40:07.632Z,98394.84
2019-05-21T21:42:18.800Z,98407.59
2019-05-21T21:44:34.158Z,98395.79
2019-05-21T21:46:42.367Z,98400.60
2019-05-21T21:48:53.314Z,98408.23
2019-05-21T21:51:04.852Z,98405.63
2019-05-21T21:53:15.700Z,98401.05
2019-05-21T21:55:26.737Z,98405.60
2019-05-21T21:57:38.014Z,98402.94
2019-05-21T21:59:49.096Z,98405.16
2019-05-21T22:02:16.913Z,98410.00
2019-05-21T22:04:30.377Z,98408.81
2019-05-21T22:06:42.120Z,98408.23
2019-05-21T22:08:53.071Z,98411.66
2019-05-21T22:11:05.190Z,98410.83
2019-05-21T22:13:16.334Z,98414.45
2019-05-21T22:15:27.203Z,98417.17
2019-05-21T22:17:38.018Z,98418.64
2019-05-21T22:19:48.963Z,98414.91
2019-05-21T22:22:00.376Z,98414.19
2019-05-21T22:24:12.148Z,98423.37
2019-05-21T22:26:23.208Z,98421.61
2019-05-21T22:28:34.441Z,98423.37
2019-05-21T22:30:45.486Z,98420.61
2019-05-21T22:32:56.514Z,98424.63
2019-05-21T22:35:07.350Z,98422.55
2019-05-21T22:37:20.123Z,98422.55
2019-05-21T22:39:32.036Z,98421.44
2019-05-21T22:44:03.088Z,98414.55
2019-05-21T22:46:14.144Z,98416.88
2019-05-21T22:48:24.985Z,98419.20
2019-05-21T22:50:35.847Z,98420.23
2019-05-21T22:52:46.907Z,98419.11
2019-05-21T22:55:07.958Z,98422.19
2019-05-21T22:58:05.456Z,98418.09
2019-05-21T23:00:16.734Z,98415.94
2019-05-21T23:02:29.588Z,98417.80
2019-05-21T23:04:40.543Z,98419.20
2019-05-21T23:06:51.643Z,98419.67
2019-05-21T23:09:04.562Z,98411.75
2019-05-21T23:11:15.502Z,98415.66
2019-05-21T23:13:26.349Z,98419.00
2019-05-21T23:15:38.091Z,98411.58
2019-05-21T23:17:49.522Z,98414.55
2019-05-21T23:20:01.293Z,98415.87
2019-05-21T23:22:13.739Z,98418.28
2019-05-21T23:24:25.205Z,98417.92
2019-05-21T23:26:37.004Z,98420.30
2019-05-21T23:28:48.525Z,98426.56
2019-05-21T23:31:01.254Z,98423.49
2019-05-21T23:33:13.670Z,98423.85
2019-05-21T23:35:25.112Z,98418.36
2019-05-21T23:37:37.781Z,98419.22
2019-05-21T23:39:52.601Z,98426.09
2019-05-21T23:42:05.344Z,98426.27
2019-05-21T23:44:17.049Z,98425.16
2019-05-21T23:46:28.977Z,98421.72
2019-05-21T23:48:40.529Z,98430.72
2019-05-21T23:50:51.461Z,98428.52
2019-05-21T23:53:03.508Z,98430.53
2019-05-21T23:55:14.641Z,98420.03
2019-05-21T23:57:26.489Z,98422.28
2019-05-21T23:59:37.543Z,98425.53
